Time;durP1;ratioP1;P1;durP2;ratioP2;P2;SDS_P1;SDS_P2;PMS_P1;PMS_P2;Temp;Humidity;BMP_temperature;BMP_pressure;BME280_temperature;BME280_humidity;BME280_pressure;Samples;Min_cycle;Max_cycle;Signal;HPM_P1;HPM_P2
2024/01/14 00:01:52;;;;;;;5.35;2.20;;;;;;;18.17;50.10;101622.50;5041953;28;20044;-38
2024/01/14 00:04:17;;;;;;;6.13;2.10;;;;;;;18.16;50.11;101618.13;5042143;28;20474;-37
2024/01/14 00:06:43;;;;;;;5.68;2.30;;;;;;;18.16;50.01;101609.91;5040598;28;20261;-37
2024/01/14 00:09:08;;;;;;;4.78;2.30;;;;;;;18.15;50.24;101610.97;5042930;28;20033;-39
2024/01/14 00:11:34;;;;;;;4.47;1.88;;;;;;;18.14;50.34;101612.06;5044151;28;20025;-38
2024/01/14 00:13:59;;;;;;;6.07;1.90;;;;;;;18.13;50.36;101607.66;5038607;28;20029;-38
2024/01/14 00:16:25;;;;;;;5.80;2.20;;;;;;;18.12;50.44;101601.38;5046173;28;20416;-38
2024/01/14 00:18:50;;;;;;;4.60;1.80;;;;;;;18.10;50.36;101605.44;5042082;28;20549;-41
2024/01/14 00:21:16;;;;;;;3.08;2.08;;;;;;;18.09;50.38;101607.34;5043305;28;20129;-41
2024/01/14 00:23:41;;;;;;;4.72;2.03;;;;;;;18.08;50.22;101605.69;5040366;28;20064;-41
2024/01/14 00:26:06;;;;;;;4.47;2.08;;;;;;;18.08;50.51;101604.88;5040840;28;20028;-41
2024/01/14 00:28:32;;;;;;;3.80;1.98;;;;;;;18.07;50.48;101606.78;5051643;28;20028;-41
2024/01/14 00:30:57;;;;;;;4.78;2.05;;;;;;;18.06;50.63;101598.81;5044880;28;20485;-41
2024/01/14 00:33:23;;;;;;;4.35;1.95;;;;;;;18.06;50.66;101601.56;5041611;28;20315;-41
2024/01/14 00:35:49;;;;;;;4.68;2.15;;;;;;;18.04;50.83;101593.59;5038105;28;20536;-41
2024/01/14 00:38:15;;;;;;;4.43;1.92;;;;;;;18.04;50.53;101596.34;5042914;28;20120;-41
2024/01/14 00:40:40;;;;;;;5.03;2.08;;;;;;;18.03;50.86;101585.63;5034253;28;20662;-40
2024/01/14 00:43:06;;;;;;;5.57;1.70;;;;;;;18.02;50.73;101586.72;5037082;28;20029;-40
2024/01/14 00:45:31;;;;;;;3.42;2.15;;;;;;;18.01;50.91;101579.56;5037702;28;20029;-41
2024/01/14 00:47:56;;;;;;;5.40;2.00;;;;;;;18.00;50.92;101573.25;5037919;28;20071;-40
2024/01/14 00:50:22;;;;;;;3.25;1.95;;;;;;;17.98;51.03;101567.19;5043484;28;20471;-41
2024/01/14 00:52:48;;;;;;;6.32;1.98;;;;;;;17.98;51.19;101566.34;5039587;28;20029;-41
2024/01/14 00:55:14;;;;;;;2.50;1.70;;;;;;;17.97;51.01;101562.78;5039716;28;20173;-41
2024/01/14 00:57:39;;;;;;;3.15;1.73;;;;;;;17.97;51.02;101562.78;5039140;28;20060;-41
2024/01/14 01:00:09;;;;;;;4.35;2.00;;;;;;;17.96;51.07;101561.13;5040179;28;20056;-40
2024/01/14 01:02:35;;;;;;;6.03;1.92;;;;;;;17.95;51.10;101554.00;5041511;28;20020;-40
2024/01/14 01:05:00;;;;;;;4.82;1.90;;;;;;;17.95;51.22;101554.00;5037976;28;20021;-40
2024/01/14 01:07:25;;;;;;;4.63;1.92;;;;;;;17.94;51.05;101547.69;5041516;28;20040;-41
2024/01/14 01:09:52;;;;;;;7.57;1.70;;;;;;;17.94;51.20;101552.31;5040307;28;20490;-40
2024/01/14 01:12:17;;;;;;;3.72;1.60;;;;;;;17.93;51.03;101545.19;5040385;28;20090;-40
2024/01/14 01:14:43;;;;;;;3.45;1.67;;;;;;;17.93;51.05;101546.00;5039166;28;20036;-44
2024/01/14 01:17:09;;;;;;;4.75;1.90;;;;;;;17.91;51.09;101545.41;5042326;28;20029;-43
2024/01/14 01:19:34;;;;;;;3.38;1.55;;;;;;;17.89;51.19;101542.13;5041760;28;20031;-41
2024/01/14 01:21:59;;;;;;;4.50;1.73;;;;;;;17.88;51.07;101540.47;5041258;28;20216;-40
2024/01/14 01:24:25;;;;;;;3.55;1.63;;;;;;;17.87;51.21;101535.25;5039214;28;20086;-41
2024/01/14 01:26:51;;;;;;;2.72;1.65;;;;;;;17.87;51.30;101530.59;5039149;28;20491;-41
2024/01/14 01:29:16;;;;;;;2.38;1.42;;;;;;;17.87;51.30;101529.75;5041357;28;20049;-40
2024/01/14 01:31:42;;;;;;;3.25;1.67;;;;;;;17.84;51.21;101516.56;5041579;28;20498;-40
2024/01/14 01:34:07;;;;;;;4.03;1.60;;;;;;;17.85;51.11;101523.69;5041785;28;20033;-37
2024/01/14 01:36:32;;;;;;;3.78;1.65;;;;;;;17.85;51.35;101518.22;5041165;28;20201;-37
2024/01/14 01:38:58;;;;;;;3.67;1.60;;;;;;;17.83;51.15;101515.75;5041613;28;20025;-37
2024/01/14 01:41:23;;;;;;;2.95;1.50;;;;;;;17.81;51.34;101510.50;5040404;28;20112;-37
2024/01/14 01:43:49;;;;;;;3.08;1.60;;;;;;;17.81;51.26;101499.53;5039149;28;20036;-39
2024/01/14 01:46:14;;;;;;;6.05;1.77;;;;;;;17.80;51.40;101497.91;5041644;28;20063;-37
2024/01/14 01:48:40;;;;;;;3.10;1.52;;;;;;;17.80;51.28;101499.78;5040291;28;20124;-40
2024/01/14 01:51:05;;;;;;;5.38;1.77;;;;;;;17.79;51.38;101498.97;5041266;28;20029;-40
2024/01/14 01:53:31;;;;;;;2.70;1.45;;;;;;;17.78;51.28;101491.00;5040530;28;20394;-41
2024/01/14 01:55:57;;;;;;;5.30;1.88;;;;;;;17.78;51.26;101491.00;5041632;28;20079;-40
2024/01/14 01:58:22;;;;;;;3.13;1.55;;;;;;;17.75;51.44;101478.63;5024785;28;20563;-41
2024/01/14 02:00:49;;;;;;;5.22;1.55;;;;;;;17.76;51.42;101496.75;5037528;28;20032;-40
2024/01/14 02:03:15;;;;;;;3.33;1.42;;;;;;;17.75;51.40;101497.00;5023571;28;20147;-41
2024/01/14 02:05:42;;;;;;;2.70;1.60;;;;;;;17.74;51.39;101500.84;5028825;28;20170;-37
2024/01/14 02:08:07;;;;;;;3.03;1.48;;;;;;;17.72;51.37;101501.09;5040980;28;20490;-37
2024/01/14 02:10:33;;;;;;;2.80;1.48;;;;;;;17.73;51.45;101496.44;5040457;28;20112;-37
2024/01/14 02:12:59;;;;;;;2.67;1.58;;;;;;;17.73;51.41;101499.19;5038268;28;20116;-40
2024/01/14 02:15:24;;;;;;;3.67;1.65;;;;;;;17.71;51.53;101495.88;5041776;28;20350;-40
2024/01/14 02:17:50;;;;;;;2.83;1.45;;;;;;;17.71;51.21;101493.16;5046528;28;20039;-41
2024/01/14 02:20:15;;;;;;;2.58;1.50;;;;;;;17.69;51.62;101484.34;5051104;28;20178;-41
2024/01/14 02:22:44;;;;;;;2.97;1.50;;;;;;;17.70;51.49;101488.75;5039515;28;20615;-41
2024/01/14 02:25:09;;;;;;;5.35;1.85;;;;;;;17.69;51.34;101489.81;5043882;28;20079;-41
2024/01/14 02:27:35;;;;;;;3.65;1.60;;;;;;;17.67;51.29;101487.34;5039677;28;20048;-41
2024/01/14 02:30:00;;;;;;;3.80;1.70;;;;;;;17.68;51.58;101479.94;5042105;28;20099;-41
2024/01/14 02:32:26;;;;;;;3.92;1.70;;;;;;;17.65;51.44;101476.63;5039804;28;20032;-41
2024/01/14 02:34:51;;;;;;;2.78;1.60;;;;;;;17.65;51.39;101473.06;5041575;28;20132;-41
2024/01/14 02:37:17;;;;;;;4.57;1.50;;;;;;;17.64;51.73;101471.41;5040960;28;20087;-42
2024/01/14 02:39:42;;;;;;;3.88;1.63;;;;;;;17.65;51.35;101475.81;5042541;28;20128;-42
2024/01/14 02:42:07;;;;;;;2.80;1.35;;;;;;;17.62;51.51;101471.66;5039068;28;20025;-41
2024/01/14 02:44:33;;;;;;;1.83;1.35;;;;;;;17.63;51.46;101470.59;5043457;28;20060;-41
2024/01/14 02:46:58;;;;;;;2.58;1.50;;;;;;;17.62;51.55;101466.19;5041372;28;20021;-41
2024/01/14 02:49:24;;;;;;;2.10;1.20;;;;;;;17.62;51.41;101455.22;5050802;28;20025;-38
2024/01/14 02:51:49;;;;;;;3.25;1.52;;;;;;;17.63;51.67;101456.03;5043081;28;20409;-38
2024/01/14 02:54:14;;;;;;;3.38;1.65;;;;;;;17.62;51.46;101449.75;5041967;28;20082;-38
2024/01/14 02:56:40;;;;;;;3.22;1.70;;;;;;;17.62;51.51;101452.50;5043289;28;20417;-38
2024/01/14 02:59:05;;;;;;;2.47;1.30;;;;;;;17.61;51.39;101441.78;5044822;28;20086;-41
2024/01/14 03:01:30;;;;;;;2.13;1.40;;;;;;;17.59;51.52;101438.47;5044065;28;20570;-40
2024/01/14 03:03:56;;;;;;;2.90;1.70;;;;;;;17.60;51.43;101443.69;5043204;28;20025;-41
2024/01/14 03:06:21;;;;;;;3.28;1.48;;;;;;;17.59;51.43;101438.47;5042820;28;20107;-42
2024/01/14 03:08:47;;;;;;;5.43;1.42;;;;;;;17.59;51.44;101435.72;5043534;28;20041;-41
2024/01/14 03:11:12;;;;;;;3.45;1.60;;;;;;;17.58;51.54;101432.19;5042065;28;20128;-38
2024/01/14 03:13:38;;;;;;;2.75;1.30;;;;;;;17.58;51.90;101423.94;5043509;28;20139;-38
2024/01/14 03:16:03;;;;;;;2.97;1.23;;;;;;;17.57;51.46;101426.94;5043438;28;20043;-38
2024/01/14 03:18:28;;;;;;;3.30;1.30;;;;;;;17.56;51.37;101417.91;5044245;28;20024;-41
2024/01/14 03:20:54;;;;;;;3.45;1.60;;;;;;;17.56;51.47;101420.63;5042588;28;20075;-41
2024/01/14 03:23:19;;;;;;;2.05;1.20;;;;;;;17.55;51.63;101415.41;5043565;28;20245;-40
2024/01/14 03:25:44;;;;;;;3.65;1.30;;;;;;;17.55;51.49;101416.22;5042232;28;20025;-41
2024/01/14 03:28:10;;;;;;;2.22;1.50;;;;;;;17.54;51.50;101420.06;5045484;28;20400;-39
2024/01/14 03:30:35;;;;;;;2.80;1.50;;;;;;;17.54;51.59;101409.09;5042360;28;20055;-38
2024/01/14 03:33:01;;;;;;;2.72;1.33;;;;;;;17.52;51.52;101405.78;5043640;28;20025;-37
2024/01/14 03:35:26;;;;;;;4.88;1.40;;;;;;;17.51;51.61;101400.56;5041889;28;20567;-38
2024/01/14 03:37:51;;;;;;;2.92;1.33;;;;;;;17.50;51.63;101402.50;5042974;28;20045;-41
2024/01/14 03:40:20;;;;;;;2.65;1.55;;;;;;;17.49;51.52;101400.84;5043145;28;20116;-38
2024/01/14 03:42:45;;;;;;;3.35;1.58;;;;;;;17.48;51.71;101390.94;5043711;28;20039;-41
2024/01/14 03:45:14;;;;;;;3.10;1.55;;;;;;;17.47;51.54;101397.50;5041065;28;20029;-39
2024/01/14 03:47:39;;;;;;;3.67;1.50;;;;;;;17.47;51.55;101395.63;5044530;28;20040;-38
2024/01/14 03:50:05;;;;;;;4.28;1.27;;;;;;;17.46;51.56;101385.75;5044106;28;20033;-42
2024/01/14 03:52:30;;;;;;;1.30;1.20;;;;;;;17.47;51.69;101389.28;5045050;28;20025;-38
2024/01/14 03:54:55;;;;;;;2.40;1.60;;;;;;;17.46;51.52;101382.16;5058769;28;20025;-38
2024/01/14 03:57:21;;;;;;;4.70;1.63;;;;;;;17.46;51.45;101377.50;5048023;28;20028;-38
2024/01/14 03:59:46;;;;;;;3.38;1.77;;;;;;;17.45;51.52;101388.75;5040069;28;20028;-37
2024/01/14 04:02:12;;;;;;;3.20;1.70;;;;;;;17.45;51.63;101386.00;5044138;28;20056;-38
2024/01/14 04:04:37;;;;;;;3.80;1.83;;;;;;;17.44;51.88;101374.19;5043831;28;20112;-38
2024/01/14 04:07:03;;;;;;;2.67;1.90;;;;;;;17.43;51.62;101372.53;5044365;28;20389;-38
2024/01/14 04:09:28;;;;;;;3.92;2.20;;;;;;;17.43;51.63;101378.03;5046426;28;20148;-38
2024/01/14 04:11:53;;;;;;;2.90;2.10;;;;;;;17.44;51.50;101370.66;5043799;28;20037;-37
2024/01/14 04:14:19;;;;;;;3.80;2.33;;;;;;;17.44;51.55;101362.41;5039342;28;20040;-38
2024/01/14 04:16:44;;;;;;;4.05;2.80;;;;;;;17.43;51.56;101372.53;5042845;28;20612;-38
2024/01/14 04:19:09;;;;;;;5.18;2.45;;;;;;;17.44;51.38;101363.25;5043210;28;20070;-38
2024/01/14 04:21:35;;;;;;;5.30;2.80;;;;;;;17.42;51.59;101368.16;5039555;28;20017;-38
2024/01/14 04:24:03;;;;;;;4.10;2.70;;;;;;;17.42;51.64;101361.84;5043661;28;20151;-38
2024/01/14 04:26:29;;;;;;;4.18;3.35;;;;;;;17.39;51.54;101349.50;5040865;28;20021;-38
2024/01/14 04:28:54;;;;;;;4.97;3.47;;;;;;;17.38;51.51;101342.34;5040837;28;20063;-38
2024/01/14 04:31:20;;;;;;;5.65;3.10;;;;;;;17.39;51.61;101349.50;5042760;28;20033;-38
2024/01/14 04:33:46;;;;;;;4.88;3.50;;;;;;;17.39;51.72;101354.16;5044602;28;20071;-38
2024/01/14 04:36:11;;;;;;;3.30;3.00;;;;;;;17.39;51.58;101351.44;5040594;28;20077;-38
2024/01/14 04:38:36;;;;;;;6.25;3.42;;;;;;;17.41;51.50;101343.75;5040300;28;20459;-38
2024/01/14 04:41:02;;;;;;;4.88;3.22;;;;;;;17.48;51.54;101336.13;5041451;28;20052;-38
2024/01/14 04:43:28;;;;;;;6.68;3.60;;;;;;;17.56;51.38;101335.66;5042146;28;20514;-38
2024/01/14 04:45:53;;;;;;;4.97;3.22;;;;;;;17.64;51.30;101335.19;5042224;28;20055;-38
2024/01/14 04:48:19;;;;;;;4.75;3.35;;;;;;;17.73;51.24;101323.72;5041214;28;20057;-38
2024/01/14 04:50:44;;;;;;;4.43;3.17;;;;;;;17.81;51.16;101324.03;5041229;28;20040;-41
2024/01/14 04:53:11;;;;;;;4.57;3.03;;;;;;;17.90;51.02;101331.78;5041849;28;20028;-41
2024/01/14 04:55:36;;;;;;;4.70;3.13;;;;;;;17.96;50.69;101326.13;5048930;28;20583;-40
2024/01/14 04:58:02;;;;;;;3.70;2.90;;;;;;;18.05;50.75;101331.94;5040136;28;20230;-40
2024/01/14 05:00:27;;;;;;;3.83;3.05;;;;;;;18.12;50.65;101327.03;5040757;28;20112;-37
2024/01/14 05:02:53;;;;;;;5.38;3.00;;;;;;;18.19;50.79;101324.03;5038784;28;20088;-37
2024/01/14 05:05:18;;;;;;;5.45;2.92;;;;;;;18.27;50.67;101322.69;5041155;28;20529;-36
2024/01/14 05:07:44;;;;;;;5.00;3.17;;;;;;;18.33;50.75;101316.16;5045269;28;20435;-37
2024/01/14 05:10:09;;;;;;;4.80;3.10;;;;;;;18.42;50.81;101310.97;5038817;28;20036;-41
2024/01/14 05:12:34;;;;;;;4.38;2.97;;;;;;;18.50;50.76;101309.63;5040935;28;20508;-38
2024/01/14 05:15:00;;;;;;;4.55;2.92;;;;;;;18.56;50.77;101303.88;5038455;28;20020;-38
2024/01/14 05:17:25;;;;;;;6.05;3.08;;;;;;;18.66;50.54;101302.28;5041125;28;20025;-38
2024/01/14 05:19:51;;;;;;;4.70;3.05;;;;;;;18.73;50.64;101300.09;5040868;28;20285;-38
2024/01/14 05:22:17;;;;;;;3.88;2.88;;;;;;;18.81;50.49;101299.56;5041582;28;20029;-38
2024/01/14 05:24:43;;;;;;;5.90;3.08;;;;;;;18.88;50.51;101285.56;5040090;28;20504;-38
2024/01/14 05:27:11;;;;;;;4.18;3.00;;;;;;;18.94;50.35;101292.75;5042190;28;20108;-41
2024/01/14 05:29:40;;;;;;;6.40;3.30;;;;;;;19.02;50.29;101286.72;5040931;28;20107;-41
2024/01/14 05:32:05;;;;;;;6.85;3.38;;;;;;;19.08;50.32;101293.06;5039325;28;20033;-41
2024/01/14 05:34:30;;;;;;;4.32;3.25;;;;;;;19.14;50.32;101291.97;5040009;28;20029;-41
2024/01/14 05:36:56;;;;;;;4.45;3.20;;;;;;;19.19;50.38;101282.88;5040354;28;20102;-41
2024/01/14 05:39:21;;;;;;;4.50;3.08;;;;;;;19.23;50.27;101281.25;5035275;28;20499;-41
2024/01/14 05:41:47;;;;;;;4.13;2.90;;;;;;;19.24;50.00;101275.47;5044013;28;20048;-42
2024/01/14 05:44:12;;;;;;;4.28;2.90;;;;;;;19.26;50.22;101269.69;5039885;28;20120;-41
2024/01/14 05:46:37;;;;;;;4.57;3.33;;;;;;;19.26;50.03;101263.38;5043987;28;20028;-41
2024/01/14 05:49:03;;;;;;;4.30;3.00;;;;;;;19.24;49.79;101253.50;5037024;28;20078;-40
2024/01/14 05:51:28;;;;;;;6.05;3.00;;;;;;;19.24;49.68;101256.25;5036097;28;20565;-40
2024/01/14 05:53:54;;;;;;;4.95;3.15;;;;;;;19.23;49.70;101257.34;5035617;28;20028;-41
2024/01/14 05:56:26;;;;;;;5.40;3.10;;;;;;;19.22;49.77;101258.44;5035602;28;20036;-41
2024/01/14 05:58:52;;;;;;;4.38;3.15;;;;;;;19.22;49.83;101254.88;5046030;28;20069;-42
2024/01/14 06:01:17;;;;;;;4.45;3.08;;;;;;;19.20;49.74;101252.41;5039406;28;20119;-40
2024/01/14 06:03:42;;;;;;;4.72;3.50;;;;;;;19.20;49.54;101251.56;5038415;28;20040;-41
2024/01/14 06:06:08;;;;;;;5.75;3.40;;;;;;;19.18;49.46;101253.78;5038218;28;20036;-40
2024/01/14 06:08:33;;;;;;;4.75;3.50;;;;;;;19.18;49.66;101251.03;5040261;28;20032;-41
2024/01/14 06:11:01;;;;;;;4.63;3.20;;;;;;;19.15;49.76;101246.88;5038002;28;20068;-41
2024/01/14 06:13:27;;;;;;;4.50;3.42;;;;;;;19.14;49.90;101236.19;5040118;28;20068;-41
2024/01/14 06:15:52;;;;;;;5.13;3.60;;;;;;;19.11;49.84;101226.56;5037757;28;20569;-41
2024/01/14 06:18:17;;;;;;;3.95;3.10;;;;;;;19.11;49.73;101229.31;5036873;28;20525;-41
2024/01/14 06:20:43;;;;;;;5.30;3.30;;;;;;;19.11;49.95;101231.25;5044090;28;20099;-42
2024/01/14 06:23:08;;;;;;;4.57;3.33;;;;;;;19.10;49.86;101230.41;5043246;28;20152;-41
2024/01/14 06:25:34;;;;;;;4.85;3.72;;;;;;;19.11;49.56;101225.75;5051332;28;20110;-41
2024/01/14 06:28:00;;;;;;;5.63;3.42;;;;;;;19.12;49.85;101216.41;5041475;28;20025;-38
2024/01/14 06:30:26;;;;;;;7.03;4.05;;;;;;;19.12;49.81;101224.66;5041072;28;20035;-38
2024/01/14 06:32:55;;;;;;;7.25;3.75;;;;;;;19.13;49.58;101215.28;5041434;28;20439;-37
2024/01/14 06:35:21;;;;;;;6.07;3.78;;;;;;;19.14;49.85;101208.72;5044749;28;20542;-37
2024/01/14 06:37:47;;;;;;;4.82;3.55;;;;;;;19.13;49.62;101201.56;5043698;28;20075;-37
2024/01/14 06:40:12;;;;;;;8.50;4.07;;;;;;;19.14;49.59;101214.19;5043995;28;20037;-37
2024/01/14 06:42:38;;;;;;;6.20;3.80;;;;;;;19.14;49.56;101209.53;5041781;28;20049;-37
2024/01/14 06:45:04;;;;;;;5.50;3.50;;;;;;;19.13;49.61;101198.81;5046401;28;20040;-37
2024/01/14 06:47:29;;;;;;;6.03;3.63;;;;;;;19.12;49.47;101200.75;5041663;28;20021;-37
2024/01/14 06:49:54;;;;;;;4.57;3.60;;;;;;;19.12;49.34;101195.25;5048937;28;20111;-37
2024/01/14 06:52:22;;;;;;;5.53;3.85;;;;;;;19.12;49.36;101198.00;5041694;28;20017;-38
2024/01/14 06:54:49;;;;;;;7.90;3.97;;;;;;;19.13;49.60;101201.56;5041047;28;20275;-38
2024/01/14 06:57:15;;;;;;;6.72;3.53;;;;;;;19.13;49.57;101199.66;5040992;28;20497;-38
2024/01/14 06:59:42;;;;;;;5.30;3.75;;;;;;;19.13;49.54;101196.06;5041879;28;20040;-41
2024/01/14 07:02:08;;;;;;;6.10;3.72;;;;;;;19.12;49.54;101192.50;5057695;28;20112;-43
2024/01/14 07:04:34;;;;;;;6.32;3.83;;;;;;;19.13;49.68;101196.06;5049432;28;20618;-41
2024/01/14 07:06:59;;;;;;;7.88;4.03;;;;;;;19.11;49.71;101187.28;5042152;28;20025;-42
2024/01/14 07:09:25;;;;;;;7.20;3.97;;;;;;;19.10;49.71;101188.38;5046306;28;20385;-40
2024/01/14 07:11:50;;;;;;;6.72;3.85;;;;;;;19.08;49.79;101180.44;5043939;28;20044;-41
2024/01/14 07:14:15;;;;;;;11.30;4.20;;;;;;;19.06;49.77;101188.94;5042370;28;20032;-42
2024/01/14 07:16:41;;;;;;;6.70;4.10;;;;;;;19.04;50.08;101187.56;5044744;28;20021;-41
2024/01/14 07:19:06;;;;;;;10.27;4.30;;;;;;;19.02;50.11;101192.53;5047016;28;20112;-42
2024/01/14 07:21:31;;;;;;;8.15;4.10;;;;;;;19.00;50.29;101189.22;5040420;28;20512;-41
2024/01/14 07:23:57;;;;;;;4.55;3.95;;;;;;;18.98;50.18;101177.66;5042063;28;20032;-41
2024/01/14 07:26:23;;;;;;;10.13;4.60;;;;;;;18.96;50.09;101188.94;5041605;28;20390;-41
2024/01/14 07:28:48;;;;;;;7.18;3.85;;;;;;;18.94;50.25;101191.13;5040976;28;20108;-41
2024/01/14 07:31:20;;;;;;;9.73;4.00;;;;;;;18.91;50.28;101186.19;5044287;28;20071;-42
2024/01/14 07:33:47;;;;;;;12.20;3.92;;;;;;;18.89;50.19;101188.34;5043942;28;20032;-41
2024/01/14 07:36:12;;;;;;;7.00;3.97;;;;;;;18.87;50.17;101193.28;5048282;28;20040;-43
2024/01/14 07:38:38;;;;;;;6.07;4.10;;;;;;;18.82;50.11;101199.63;5043122;28;20393;-42
2024/01/14 07:41:05;;;;;;;6.75;3.50;;;;;;;18.80;50.06;101196.31;5046772;28;20039;-41
2024/01/14 07:43:30;;;;;;;13.10;4.57;;;;;;;18.79;50.17;101188.38;5040681;28;20465;-41
2024/01/14 07:45:56;;;;;;;10.50;4.28;;;;;;;18.75;50.35;101190.84;5047873;28;20128;-38
2024/01/14 07:48:21;;;;;;;11.38;4.68;;;;;;;18.71;50.27;101182.31;5043408;28;20133;-38
2024/01/14 07:50:46;;;;;;;16.05;4.70;;;;;;;18.66;50.52;101185.03;5044190;28;20025;-39
2024/01/14 07:53:13;;;;;;;10.43;4.97;;;;;;;18.66;50.51;101187.78;5044435;28;20025;-40
2024/01/14 07:55:38;;;;;;;13.90;5.63;;;;;;;18.63;50.45;101190.28;5030911;28;20040;-41
2024/01/14 07:58:04;;;;;;;18.92;6.82;;;;;;;18.59;50.37;101182.56;5041974;28;20029;-41
2024/01/14 08:00:29;;;;;;;11.27;7.05;;;;;;;18.56;50.36;101194.06;5039565;28;20037;-40
2024/01/14 08:02:54;;;;;;;14.00;6.82;;;;;;;18.53;50.28;101191.09;5042595;28;20155;-41
2024/01/14 08:05:20;;;;;;;15.57;6.93;;;;;;;18.48;50.30;101191.03;5042243;28;20025;-41
2024/01/14 08:07:45;;;;;;;16.25;6.35;;;;;;;18.46;50.45;101196.81;5042949;28;20112;-41
2024/01/14 08:10:11;;;;;;;15.88;7.30;;;;;;;18.43;50.53;101192.69;5043171;28;20255;-40
2024/01/14 08:12:36;;;;;;;13.40;6.85;;;;;;;18.38;50.62;101194.59;5043146;28;20489;-41
2024/01/14 08:15:02;;;;;;;14.18;6.90;;;;;;;18.34;50.44;101188.81;5047068;28;20031;-41
2024/01/14 08:17:28;;;;;;;13.13;6.70;;;;;;;18.32;50.65;101184.69;5046597;28;20029;-42
2024/01/14 08:19:53;;;;;;;15.13;7.25;;;;;;;18.28;50.76;101190.75;5041133;28;20090;-42
2024/01/14 08:22:19;;;;;;;11.35;6.60;;;;;;;18.25;51.04;101187.72;5040593;28;20033;-40
2024/01/14 08:24:44;;;;;;;19.83;7.85;;;;;;;18.21;50.97;101184.69;5040566;28;20028;-40
2024/01/14 08:27:10;;;;;;;19.00;8.60;;;;;;;18.18;50.80;101184.41;5042929;28;20358;-41
2024/01/14 08:29:35;;;;;;;26.67;8.68;;;;;;;18.15;51.22;101179.44;5043406;28;20032;-41
2024/01/14 08:32:00;;;;;;;27.40;9.50;;;;;;;18.10;51.12;101185.75;5044447;28;20103;-40
2024/01/14 08:34:26;;;;;;;21.77;10.02;;;;;;;18.08;51.21;101179.72;5040992;28;20021;-41
2024/01/14 08:36:51;;;;;;;31.73;10.13;;;;;;;18.04;51.05;101179.41;5044237;28;20169;-41
2024/01/14 08:39:17;;;;;;;25.00;11.15;;;;;;;18.01;51.07;101179.13;5042405;28;20043;-41
2024/01/14 08:41:44;;;;;;;25.83;10.68;;;;;;;17.98;51.28;101169.53;5040844;28;20033;-40
2024/01/14 08:44:10;;;;;;;24.75;9.80;;;;;;;17.95;51.43;101164.56;5041492;28;20036;-41
2024/01/14 08:46:47;;;;;;;30.77;9.90;;;;;;;17.93;51.33;101161.25;5040934;28;20063;-40
2024/01/14 08:49:16;;;;;;;24.60;9.88;;;;;;;17.88;51.32;101162.06;5043512;28;20024;-41
2024/01/14 08:51:41;;;;;;;28.42;10.55;;;;;;;17.86;51.25;101158.75;5042294;28;20027;-38
2024/01/14 08:54:07;;;;;;;27.10;10.80;;;;;;;17.84;51.28;101160.09;5042350;28;20036;-38
2024/01/14 08:56:32;;;;;;;22.10;9.80;;;;;;;17.81;51.09;101159.53;5040058;28;20083;-38
2024/01/14 08:58:58;;;;;;;27.60;10.27;;;;;;;17.79;51.23;101159.00;5040361;28;20388;-37
2024/01/14 09:01:24;;;;;;;18.50;10.30;;;;;;;17.76;51.04;101147.75;5048909;28;20048;-38
2024/01/14 09:03:50;;;;;;;25.15;10.48;;;;;;;17.75;50.87;101148.84;5041741;28;20040;-37
2024/01/14 09:06:16;;;;;;;17.75;8.27;;;;;;;17.70;51.02;101149.63;5038899;28;20033;-37
2024/01/14 09:08:41;;;;;;;16.77;9.65;;;;;;;17.67;50.94;101139.22;5045851;28;20491;-37
2024/01/14 09:11:07;;;;;;;17.58;10.07;;;;;;;17.64;50.95;101142.47;5045898;28;20029;-38
2024/01/14 09:13:33;;;;;;;17.77;8.50;;;;;;;17.61;51.09;101146.56;5041919;28;20371;-38
2024/01/14 09:15:59;;;;;;;17.35;8.80;;;;;;;17.59;50.82;101131.50;5048246;28;20020;-38
2024/01/14 09:18:25;;;;;;;16.17;8.30;;;;;;;17.54;50.97;101124.06;5039159;28;20052;-38
2024/01/14 09:20:50;;;;;;;18.85;8.88;;;;;;;17.53;50.87;101135.31;5041652;28;20377;-38
2024/01/14 09:23:16;;;;;;;14.52;7.90;;;;;;;17.49;51.00;101135.00;5041321;28;20026;-36
2024/01/14 09:25:41;;;;;;;11.15;7.50;;;;;;;17.44;51.29;101124.84;5051012;28;20032;-37
2024/01/14 09:28:07;;;;;;;15.02;8.50;;;;;;;17.43;51.14;101134.16;5037680;28;20055;-37
2024/01/14 09:30:32;;;;;;;11.38;7.82;;;;;;;17.42;50.99;101128.94;5041307;28;20385;-36
2024/01/14 09:32:58;;;;;;;16.15;8.20;;;;;;;17.39;51.01;101132.22;5043855;28;20024;-40
2024/01/14 09:35:23;;;;;;;16.92;7.88;;;;;;;17.33;51.20;101123.16;5040422;28;20508;-40
2024/01/14 09:37:50;;;;;;;11.38;6.97;;;;;;;17.30;51.27;101123.66;5039384;28;20095;-41
2024/01/14 09:40:16;;;;;;;11.90;8.02;;;;;;;17.28;50.98;101120.38;5042571;28;20501;-41
2024/01/14 09:42:44;;;;;;;13.70;8.00;;;;;;;17.26;51.10;101119.81;5038642;28;20033;-41
2024/01/14 09:45:10;;;;;;;11.38;7.93;;;;;;;17.23;51.11;101118.44;5042050;28;20588;-37
2024/01/14 09:47:36;;;;;;;11.18;7.30;;;;;;;17.20;51.20;101113.47;5037126;28;20119;-37
2024/01/14 09:50:01;;;;;;;13.68;7.88;;;;;;;17.18;51.30;101118.41;5041193;28;20481;-38
2024/01/14 09:52:29;;;;;;;11.95;8.10;;;;;;;17.16;51.31;101115.09;5046271;28;20020;-37
2024/01/14 09:54:54;;;;;;;10.57;7.80;;;;;;;17.14;51.32;101117.25;5046792;28;20029;-36
2024/01/14 09:57:20;;;;;;;13.57;8.68;;;;;;;17.11;51.21;101115.06;5049539;28;20035;-37
2024/01/14 09:59:47;;;;;;;12.20;7.60;;;;;;;17.09;51.36;101120.81;5045143;28;20036;-37
2024/01/14 10:02:14;;;;;;;13.48;7.95;;;;;;;17.07;51.20;101127.63;5045169;28;20131;-37
2024/01/14 10:04:40;;;;;;;11.60;7.80;;;;;;;17.04;51.23;101117.22;5044528;28;20028;-36
2024/01/14 10:07:09;;;;;;;13.38;7.15;;;;;;;17.02;51.49;101116.63;5042871;28;20020;-37
2024/01/14 10:09:34;;;;;;;10.10;6.88;;;;;;;16.99;51.47;101112.53;5045466;28;20031;-36
2024/01/14 10:12:00;;;;;;;11.18;8.55;;;;;;;16.98;51.38;101110.88;5044914;28;20548;-38
2024/01/14 10:14:26;;;;;;;13.50;7.88;;;;;;;16.95;51.29;101112.22;5042722;28;20076;-37
2024/01/14 10:16:55;;;;;;;12.40;7.55;;;;;;;16.92;51.33;101112.75;5045985;28;20038;-38
2024/01/14 10:19:22;;;;;;;13.23;8.02;;;;;;;16.92;51.31;101106.44;5064530;28;20047;-37
2024/01/14 10:21:47;;;;;;;12.60;7.53;;;;;;;16.90;51.44;101106.69;5048342;28;20026;-37
2024/01/14 10:24:13;;;;;;;10.15;7.07;;;;;;;16.88;51.52;101105.28;5047841;28;20033;-37
2024/01/14 10:26:40;;;;;;;14.20;8.15;;;;;;;16.87;51.45;101098.16;5043688;28;20043;-37
2024/01/14 10:29:05;;;;;;;9.68;7.00;;;;;;;16.83;51.50;101093.19;5043333;28;20035;-37
2024/01/14 10:31:31;;;;;;;13.38;7.75;;;;;;;16.82;51.43;101088.00;5044510;28;20025;-38
2024/01/14 10:33:59;;;;;;;11.38;8.48;;;;;;;16.80;51.42;101088.28;5044728;28;20167;-38
2024/01/14 10:36:27;;;;;;;13.65;8.13;;;;;;;16.79;51.46;101088.53;5044436;28;20041;-37
2024/01/14 10:38:52;;;;;;;11.73;8.02;;;;;;;16.76;51.46;101080.84;5045071;28;20454;-37
2024/01/14 10:41:18;;;;;;;12.65;9.00;;;;;;;16.74;51.71;101080.25;5044302;28;20665;-37
2024/01/14 10:43:44;;;;;;;11.55;8.52;;;;;;;16.73;51.42;101081.38;5058900;28;20031;-37
2024/01/14 10:46:12;;;;;;;13.65;8.63;;;;;;;16.68;51.50;101080.22;5041936;28;20048;-37
2024/01/14 10:48:40;;;;;;;11.95;8.30;;;;;;;16.67;51.68;101075.84;5045003;28;20028;-37
2024/01/14 10:51:06;;;;;;;13.10;8.25;;;;;;;16.66;51.85;101067.91;5045679;28;20082;-37
2024/01/14 10:53:48;;;;;;;13.68;8.73;;;;;;;16.64;51.70;101056.38;5046223;28;20352;-37
2024/01/14 10:56:16;;;;;;;11.27;8.15;;;;;;;16.62;51.71;101050.38;5041312;28;20021;-37
2024/01/14 10:58:41;;;;;;;12.15;7.47;;;;;;;16.60;51.81;101047.91;5042746;28;20551;-37
2024/01/14 11:01:08;;;;;;;9.68;6.82;;;;;;;16.59;51.99;101046.25;5042154;28;20032;-37
2024/01/14 11:03:34;;;;;;;11.02;7.75;;;;;;;16.58;51.96;101050.06;5040326;28;20099;-37
2024/01/14 11:06:00;;;;;;;10.40;6.53;;;;;;;16.58;52.08;101035.53;5076533;28;20100;-36
2024/01/14 11:08:26;;;;;;;12.13;7.68;;;;;;;16.57;51.92;101025.72;5043048;28;20108;-37
2024/01/14 11:10:53;;;;;;;10.70;6.60;;;;;;;16.55;51.99;101022.41;5050582;28;20402;-37
2024/01/14 11:13:24;;;;;;;11.02;6.28;;;;;;;16.55;51.94;101025.94;5042603;28;20318;-37
2024/01/14 11:16:05;;;;;;;9.63;6.47;;;;;;;16.56;52.03;101018.59;5075704;28;20031;-37